Time;durP1;ratioP1;P1;durP2;ratioP2;P2;SDS_P1;SDS_P2;PMS_P1;PMS_P2;Temp;Humidity;BMP_temperature;BMP_pressure;BME280_temperature;BME280_humidity;BME280_pressure;Samples;Min_cycle;Max_cycle;Signal;HPM_P1;HPM_P2
2023/03/04 00:00:03;;;;;;;20.75;4.13;;;;;;;4.14;81.16;102517.25;5020799;28;20029;-58
2023/03/04 00:02:29;;;;;;;20.63;4.45;;;;;;;4.14;81.08;102523.38;5015550;28;20083;-58
2023/03/04 00:04:54;;;;;;;18.38;4.63;;;;;;;4.12;81.17;102525.25;5020661;28;20029;-58
2023/03/04 00:07:19;;;;;;;19.33;4.70;;;;;;;4.11;82.17;102523.56;5020351;28;20021;-59
2023/03/04 00:09:45;;;;;;;23.55;4.72;;;;;;;4.09;81.57;102529.81;5021421;28;20416;-59
2023/03/04 00:12:11;;;;;;;23.15;4.90;;;;;;;4.08;83.06;102533.31;5022326;28;20060;-59
2023/03/04 00:14:36;;;;;;;20.52;4.53;;;;;;;4.08;82.42;102528.94;5024620;28;20100;-59
2023/03/04 00:17:03;;;;;;;22.42;5.30;;;;;;;4.08;82.12;102528.94;5031610;28;20029;-59
2023/03/04 00:19:29;;;;;;;21.13;5.45;;;;;;;4.06;82.32;102525.56;5032736;28;20037;-60
2023/03/04 00:21:54;;;;;;;23.20;5.00;;;;;;;4.05;82.62;102523.84;5024751;28;20425;-59
2023/03/04 00:24:19;;;;;;;23.63;4.72;;;;;;;4.06;81.88;102517.69;5021737;28;20026;-58
2023/03/04 00:26:45;;;;;;;23.85;4.97;;;;;;;4.13;81.17;102513.81;5026993;28;20382;-60
2023/03/04 00:29:10;;;;;;;23.08;4.70;;;;;;;4.11;82.26;102517.44;5024343;28;20048;-60
2023/03/04 00:31:35;;;;;;;26.98;5.00;;;;;;;4.14;81.84;102512.00;5024148;28;20040;-59
2023/03/04 00:34:01;;;;;;;23.45;4.72;;;;;;;4.12;81.97;102513.88;5032593;28;20029;-58
2023/03/04 00:36:26;;;;;;;22.30;4.80;;;;;;;4.13;81.95;102516.44;5026777;28;20033;-61
2023/03/04 00:38:51;;;;;;;20.77;4.82;;;;;;;4.06;81.84;102514.19;5027215;28;20404;-58
2023/03/04 00:41:16;;;;;;;24.13;4.45;;;;;;;4.07;82.05;102511.50;5030918;28;20082;-59
2023/03/04 00:43:42;;;;;;;23.73;4.57;;;;;;;4.08;81.66;102515.81;5019745;28;20060;-58
2023/03/04 00:46:07;;;;;;;24.63;4.50;;;;;;;4.08;82.08;102507.06;5027370;28;20513;-59
2023/03/04 00:48:32;;;;;;;25.63;4.65;;;;;;;4.09;82.65;102509.63;5022889;28;20129;-59
2023/03/04 00:50:58;;;;;;;21.85;4.50;;;;;;;4.09;82.07;102514.03;5022272;28;20038;-59
2023/03/04 00:53:23;;;;;;;25.42;4.57;;;;;;;4.11;82.12;102518.28;5016225;28;20060;-58
2023/03/04 00:55:49;;;;;;;24.40;5.07;;;;;;;4.14;81.91;102512.88;5022814;28;20034;-59
2023/03/04 00:58:14;;;;;;;17.05;3.40;;;;;;;4.22;81.79;102509.88;5019852;28;20044;-59
2023/03/04 01:00:39;;;;;;;26.90;4.25;;;;;;;4.21;82.48;102512.56;5020981;28;20038;-59
2023/03/04 01:03:04;;;;;;;21.10;4.05;;;;;;;4.27;82.21;102517.50;5021984;28;20510;-58
2023/03/04 01:05:31;;;;;;;19.60;3.80;;;;;;;4.19;82.66;102519.69;5022601;28;20034;-59
2023/03/04 01:07:56;;;;;;;18.98;4.43;;;;;;;4.23;81.50;102518.56;5016990;28;20108;-58
2023/03/04 01:10:21;;;;;;;17.35;4.28;;;;;;;4.21;82.42;102518.69;5021345;28;20104;-58
2023/03/04 01:12:46;;;;;;;18.88;4.32;;;;;;;4.20;82.37;102514.34;5024363;28;20033;-59
2023/03/04 01:15:13;;;;;;;19.02;4.40;;;;;;;4.21;81.95;102528.31;5030334;28;20040;-59
2023/03/04 01:17:38;;;;;;;23.63;4.22;;;;;;;4.12;82.42;102514.75;5021079;28;20731;-59
2023/03/04 01:20:04;;;;;;;17.60;4.13;;;;;;;4.13;83.36;102516.44;5034502;28;20037;-59
2023/03/04 01:22:30;;;;;;;26.15;4.60;;;;;;;4.08;81.66;102518.44;5022160;28;20033;-59
2023/03/04 01:24:55;;;;;;;15.18;3.75;;;;;;;4.06;81.95;102511.56;5026893;28;20029;-59
2023/03/04 01:27:20;;;;;;;24.17;4.45;;;;;;;4.11;81.91;102515.66;5029665;28;20455;-59
2023/03/04 01:29:45;;;;;;;25.05;4.10;;;;;;;4.07;81.47;102516.75;5028162;28;20045;-59
2023/03/04 01:32:11;;;;;;;22.48;4.63;;;;;;;4.10;82.12;102516.56;5020382;28;20034;-59
2023/03/04 01:34:36;;;;;;;29.08;5.30;;;;;;;4.14;81.97;102518.13;5022920;28;20481;-58
2023/03/04 01:37:01;;;;;;;22.38;4.07;;;;;;;4.15;82.96;102511.13;5043315;28;20041;-58
2023/03/04 01:39:27;;;;;;;17.80;3.90;;;;;;;4.29;81.32;102506.00;5024396;28;20045;-58
2023/03/04 01:41:53;;;;;;;19.63;3.92;;;;;;;4.19;81.83;102509.19;5033463;28;20033;-59
2023/03/04 01:44:18;;;;;;;24.55;3.72;;;;;;;4.19;82.30;102503.94;5032196;28;20553;-59
2023/03/04 01:46:51;;;;;;;21.52;3.63;;;;;;;4.14;82.38;102502.38;5044266;28;20029;-59
2023/03/04 01:49:17;;;;;;;19.60;3.55;;;;;;;4.13;81.59;102499.81;5027927;28;20026;-58
2023/03/04 01:51:47;;;;;;;20.58;4.30;;;;;;;4.15;81.51;102493.56;5020545;28;20033;-59
2023/03/04 01:54:13;;;;;;;20.85;4.38;;;;;;;4.11;81.91;102485.94;5027709;28;20095;-59
2023/03/04 01:56:39;;;;;;;19.15;3.67;;;;;;;4.21;80.78;102487.16;5021821;28;20421;-58
2023/03/04 01:59:10;;;;;;;17.73;3.17;;;;;;;4.26;81.21;102479.03;5019129;28;20032;-59
2023/03/04 02:01:37;;;;;;;23.35;3.45;;;;;;;4.11;81.64;102481.53;5034077;28;20080;-58
2023/03/04 02:04:03;;;;;;;21.58;3.75;;;;;;;4.08;81.99;102479.06;5025941;28;20474;-59
2023/03/04 02:06:29;;;;;;;20.60;3.67;;;;;;;4.20;81.51;102474.97;5025604;28;20071;-60
2023/03/04 02:08:54;;;;;;;21.58;3.40;;;;;;;4.24;82.19;102483.53;5033811;28;20495;-58
2023/03/04 02:11:19;;;;;;;19.50;3.60;;;;;;;4.27;81.52;102475.47;5023711;28;20034;-59
2023/03/04 02:13:45;;;;;;;22.70;3.67;;;;;;;4.22;81.07;102467.00;5027884;28;20029;-60
2023/03/04 02:16:10;;;;;;;20.92;3.60;;;;;;;4.27;81.64;102467.59;5031914;28;20438;-58
2023/03/04 02:18:35;;;;;;;20.40;3.55;;;;;;;4.14;81.94;102470.88;5030634;28;20550;-59
2023/03/04 02:21:17;;;;;;;21.20;3.67;;;;;;;4.16;81.89;102474.25;5026288;28;20448;-59
2023/03/04 02:24:07;;;;;;;14.55;3.30;;;;;;;4.13;82.47;102458.66;5025032;28;20033;-59
2023/03/04 02:26:34;;;;;;;19.20;3.83;;;;;;;4.15;82.19;102467.31;5020821;28;20033;-60
2023/03/04 02:29:00;;;;;;;19.15;3.42;;;;;;;4.12;82.01;102464.84;5028018;28;20116;-58
2023/03/04 02:31:30;;;;;;;20.85;3.90;;;;;;;4.27;81.55;102465.84;5029812;28;20567;-60
2023/03/04 02:33:59;;;;;;;16.17;3.35;;;;;;;4.10;82.51;102465.84;5018350;28;20044;-58
2023/03/04 02:36:25;;;;;;;21.70;3.70;;;;;;;4.08;82.12;102460.69;5027183;28;20036;-59
2023/03/04 02:38:52;;;;;;;18.38;3.63;;;;;;;4.09;82.48;102465.00;5020834;28;20022;-59
2023/03/04 02:41:21;;;;;;;20.42;3.25;;;;;;;4.03;82.56;102460.06;5031348;28;20113;-61
2023/03/04 02:43:50;;;;;;;19.70;3.75;;;;;;;4.08;81.36;102450.19;5025237;28;20025;-58
2023/03/04 02:46:16;;;;;;;16.45;3.55;;;;;;;4.03;82.78;102458.28;5035050;28;20035;-58
2023/03/04 02:48:41;;;;;;;20.85;3.72;;;;;;;4.18;82.25;102450.53;5018445;28;20046;-59
2023/03/04 02:51:06;;;;;;;16.65;3.17;;;;;;;4.12;82.07;102443.84;5021108;28;20091;-59
2023/03/04 02:53:32;;;;;;;19.65;3.53;;;;;;;4.22;81.92;102445.97;5016801;28;20565;-58
2023/03/04 02:55:57;;;;;;;17.00;3.30;;;;;;;4.14;82.27;102443.75;5029157;28;20025;-58
2023/03/04 02:58:22;;;;;;;16.58;3.40;;;;;;;4.09;83.00;102446.63;5024920;28;20117;-58
2023/03/04 03:00:47;;;;;;;21.13;3.30;;;;;;;4.13;82.90;102442.91;5015698;28;20041;-58
2023/03/04 03:03:13;;;;;;;15.90;3.30;;;;;;;4.04;83.10;102444.25;5016371;28;20560;-61
2023/03/04 03:05:38;;;;;;;17.85;3.42;;;;;;;4.14;83.27;102439.34;5013998;28;20022;-61
2023/03/04 03:08:04;;;;;;;19.73;3.42;;;;;;;4.09;83.28;102440.53;5022127;28;20061;-58
2023/03/04 03:10:29;;;;;;;16.48;3.08;;;;;;;4.09;83.96;102436.13;5017936;28;20064;-59
2023/03/04 03:12:55;;;;;;;17.50;3.25;;;;;;;4.09;84.55;102436.13;5020633;28;20087;-62
2023/03/04 03:15:20;;;;;;;16.73;3.45;;;;;;;4.02;83.21;102434.75;5015671;28;20083;-59
2023/03/04 03:17:46;;;;;;;18.52;3.58;;;;;;;4.01;84.13;102433.88;5019686;28;20034;-59
2023/03/04 03:20:12;;;;;;;21.35;3.72;;;;;;;4.02;84.72;102432.13;5015148;28;20021;-59
2023/03/04 03:22:39;;;;;;;17.52;3.45;;;;;;;3.98;84.31;102438.44;5019684;28;20021;-59
2023/03/04 03:25:05;;;;;;;15.70;3.80;;;;;;;3.98;84.64;102433.19;5027531;28;20037;-58
2023/03/04 03:27:30;;;;;;;15.75;3.25;;;;;;;4.14;83.35;102434.09;5027816;28;20029;-61
2023/03/04 03:29:55;;;;;;;18.58;3.40;;;;;;;4.10;83.66;102423.84;5017641;28;20033;-58
2023/03/04 03:32:21;;;;;;;22.50;3.83;;;;;;;4.07;84.19;102427.47;5024394;28;20438;-59
2023/03/04 03:34:46;;;;;;;18.30;3.28;;;;;;;4.08;84.64;102423.91;5021346;28;20034;-59
2023/03/04 03:37:12;;;;;;;15.32;2.95;;;;;;;4.19;83.27;102425.16;5025931;28;20115;-59
2023/03/04 03:39:38;;;;;;;20.02;3.25;;;;;;;4.01;84.21;102412.88;5021416;28;20037;-59
2023/03/04 03:42:03;;;;;;;18.65;3.58;;;;;;;4.02;85.03;102424.25;5022568;28;20048;-60
2023/03/04 03:44:28;;;;;;;18.70;3.30;;;;;;;4.00;84.65;102420.84;5037497;28;20850;-59
2023/03/04 03:46:54;;;;;;;16.88;3.30;;;;;;;4.10;83.60;102416.81;5034205;28;20099;-59
2023/03/04 03:49:19;;;;;;;21.13;3.30;;;;;;;4.03;83.84;102420.69;5019792;28;20040;-59
2023/03/04 03:51:45;;;;;;;18.23;3.40;;;;;;;3.96;84.57;102419.31;5022609;28;20042;-58
2023/03/04 03:54:11;;;;;;;15.52;3.28;;;;;;;4.04;84.46;102417.97;5027259;28;20093;-59
2023/03/04 03:56:36;;;;;;;17.02;3.25;;;;;;;4.05;84.49;102418.84;5023952;28;20125;-59
2023/03/04 03:59:01;;;;;;;19.63;3.13;;;;;;;4.20;84.05;102421.59;5024236;28;20160;-59
2023/03/04 04:01:26;;;;;;;16.55;3.28;;;;;;;4.13;84.41;102414.03;5017867;28;20646;-58
2023/03/04 04:03:52;;;;;;;14.25;3.08;;;;;;;4.03;84.45;102418.06;5021528;28;20057;-58
2023/03/04 04:06:17;;;;;;;18.75;3.25;;;;;;;4.08;84.56;102418.66;5029593;28;20116;-59
2023/03/04 04:08:43;;;;;;;18.30;3.40;;;;;;;4.11;83.54;102425.53;5032201;28;20048;-59
2023/03/04 04:11:09;;;;;;;18.40;3.17;;;;;;;4.01;84.23;102423.38;5023555;28;20039;-59
2023/03/04 04:13:34;;;;;;;19.35;3.28;;;;;;;3.97;83.85;102421.84;5025197;28;20033;-60
2023/03/04 04:16:00;;;;;;;16.90;3.93;;;;;;;3.93;82.69;102419.44;5024662;28;20060;-58
2023/03/04 04:18:25;;;;;;;17.38;3.20;;;;;;;3.97;83.94;102426.25;5032646;28;20029;-59
2023/03/04 04:20:51;;;;;;;17.02;3.30;;;;;;;3.94;83.13;102429.88;5024350;28;20367;-60
2023/03/04 04:23:16;;;;;;;17.60;3.10;;;;;;;3.97;83.61;102426.25;5018638;28;20848;-59
2023/03/04 04:25:42;;;;;;;19.83;3.65;;;;;;;4.04;81.80;102425.84;5028612;28;20036;-61
2023/03/04 04:28:07;;;;;;;19.92;3.67;;;;;;;3.95;82.68;102428.13;5023969;28;20381;-59
2023/03/04 04:30:32;;;;;;;18.38;3.38;;;;;;;4.03;81.85;102418.06;5024205;28;20030;-59
2023/03/04 04:33:00;;;;;;;18.58;3.05;;;;;;;4.09;81.01;102425.63;5026767;28;20075;-59
2023/03/04 04:35:26;;;;;;;19.20;3.20;;;;;;;4.06;82.15;102415.28;5026419;28;20440;-59
2023/03/04 04:37:51;;;;;;;17.33;2.92;;;;;;;4.07;82.12;102419.59;5022872;28;20021;-60
2023/03/04 04:40:17;;;;;;;14.75;3.40;;;;;;;4.09;81.79;102425.63;5034392;28;20037;-59
2023/03/04 04:42:42;;;;;;;15.00;2.95;;;;;;;4.21;81.54;102425.91;5029876;28;20507;-59
2023/03/04 04:45:08;;;;;;;19.63;3.42;;;;;;;4.20;80.83;102429.47;5034089;28;20025;-59
2023/03/04 04:47:33;;;;;;;15.65;2.90;;;;;;;4.21;80.83;102431.16;5024266;28;20038;-58
2023/03/04 04:49:58;;;;;;;13.80;2.90;;;;;;;4.14;81.70;102436.72;5037160;28;20025;-58
2023/03/04 04:52:23;;;;;;;14.30;3.13;;;;;;;4.11;81.37;102434.28;5026762;28;20556;-59
2023/03/04 04:54:49;;;;;;;17.95;2.90;;;;;;;4.17;81.52;102433.09;5031674;28;20027;-60
2023/03/04 04:57:16;;;;;;;17.70;3.08;;;;;;;4.10;82.15;102436.97;5025440;28;20076;-61
2023/03/04 04:59:42;;;;;;;15.18;2.60;;;;;;;4.07;81.41;102431.88;5029374;28;20021;-59
2023/03/04 05:02:07;;;;;;;17.95;2.90;;;;;;;4.07;82.23;102435.34;5021261;28;20035;-60
2023/03/04 05:04:32;;;;;;;15.38;3.50;;;;;;;4.05;83.24;102439.84;5015736;28;20512;-59
2023/03/04 05:06:58;;;;;;;19.63;3.55;;;;;;;4.10;81.96;102436.97;5020949;28;20018;-59
2023/03/04 05:09:23;;;;;;;15.38;2.88;;;;;;;4.11;82.04;102431.66;5021020;28;20121;-60
2023/03/04 05:11:49;;;;;;;13.80;3.00;;;;;;;4.09;81.70;102436.13;5018974;28;20026;-59
2023/03/04 05:14:14;;;;;;;17.30;3.67;;;;;;;4.11;81.80;102429.03;5016507;28;20084;-61
2023/03/04 05:16:39;;;;;;;13.70;3.30;;;;;;;4.12;81.42;102430.72;5021468;28;20025;-61
2023/03/04 05:19:05;;;;;;;16.27;2.97;;;;;;;4.13;81.00;102429.78;5025388;28;20045;-60
2023/03/04 05:21:30;;;;;;;12.93;2.83;;;;;;;4.17;80.97;102431.34;5024162;28;20067;-58
2023/03/04 05:23:56;;;;;;;15.57;2.90;;;;;;;4.25;80.11;102432.69;5014688;28;20026;-59
2023/03/04 05:26:21;;;;;;;16.00;3.38;;;;;;;4.02;81.59;102427.72;5027684;28;20028;-59
2023/03/04 05:28:46;;;;;;;19.50;3.22;;;;;;;4.11;81.19;102429.03;5026723;28;20465;-58
2023/03/04 05:31:12;;;;;;;14.55;2.88;;;;;;;4.21;80.30;102433.78;5030198;28;20057;-59
2023/03/04 05:33:37;;;;;;;16.73;3.53;;;;;;;4.17;80.09;102433.97;5027699;28;20036;-59
2023/03/04 05:36:05;;;;;;;13.13;3.17;;;;;;;4.17;80.82;102433.97;5020701;28;20108;-59
2023/03/04 05:38:30;;;;;;;15.70;3.10;;;;;;;4.15;80.61;102432.34;5019711;28;20039;-59
2023/03/04 05:41:01;;;;;;;13.63;2.75;;;;;;;4.10;81.11;102427.31;5024768;28;20026;-58
2023/03/04 05:43:27;;;;;;;15.65;3.38;;;;;;;4.10;81.10;102434.34;5019670;28;20072;-58
2023/03/04 05:45:53;;;;;;;12.85;3.03;;;;;;;4.00;81.92;102433.97;5016923;28;20018;-58
2023/03/04 05:48:21;;;;;;;18.52;3.53;;;;;;;3.93;82.25;102437.81;5017811;28;20605;-58
2023/03/04 05:50:46;;;;;;;17.37;3.07;;;;;;;4.11;80.97;102434.28;5017524;28;20487;-59
2023/03/04 05:53:12;;;;;;;16.40;3.10;;;;;;;4.13;81.46;102440.28;5023045;28;20033;-58
2023/03/04 05:55:37;;;;;;;14.45;3.00;;;;;;;4.12;81.79;102441.22;5021512;28;20109;-58
2023/03/04 05:58:03;;;;;;;13.77;3.03;;;;;;;3.98;82.04;102443.69;5022157;28;20029;-61
2023/03/04 06:00:28;;;;;;;12.83;2.83;;;;;;;4.00;82.36;102440.06;5019501;28;20045;-59
2023/03/04 06:02:54;;;;;;;15.13;3.10;;;;;;;4.04;83.31;102444.25;5018003;28;20112;-58
2023/03/04 06:05:20;;;;;;;15.77;2.92;;;;;;;4.03;82.85;102441.69;5015468;28;20136;-58
2023/03/04 06:07:45;;;;;;;16.17;2.70;;;;;;;4.04;82.35;102454.72;5016043;28;20033;-59
2023/03/04 06:10:13;;;;;;;20.05;3.13;;;;;;;4.08;83.05;102438.81;5024127;28;20030;-59
2023/03/04 06:12:39;;;;;;;12.38;2.85;;;;;;;4.10;82.28;102448.31;5022162;28;20045;-59
2023/03/04 06:15:05;;;;;;;12.23;2.70;;;;;;;4.09;82.66;102446.63;5017286;28;20048;-58
2023/03/04 06:17:31;;;;;;;13.07;2.80;;;;;;;4.10;83.69;102447.47;5019075;28;20048;-59
2023/03/04 06:19:56;;;;;;;11.30;2.70;;;;;;;4.01;83.37;102454.03;5016970;28;20038;-58
2023/03/04 06:22:21;;;;;;;18.35;3.00;;;;;;;3.99;84.01;102453.28;5018448;28;20031;-59
2023/03/04 06:24:47;;;;;;;15.05;2.83;;;;;;;4.13;83.83;102450.78;5019497;28;20034;-59
2023/03/04 06:27:12;;;;;;;12.77;2.70;;;;;;;4.03;83.97;102449.56;5015425;28;20041;-59
2023/03/04 06:29:38;;;;;;;13.10;2.70;;;;;;;3.96;84.54;102451.66;5017082;28;20065;-59
2023/03/04 06:32:04;;;;;;;14.23;2.70;;;;;;;4.06;84.98;102467.78;5018921;28;20148;-58
2023/03/04 06:34:30;;;;;;;8.93;2.58;;;;;;;4.08;84.66;102460.69;5016074;28;20041;-63
2023/03/04 06:36:55;;;;;;;14.57;2.90;;;;;;;4.02;85.88;102455.75;5020099;28;20033;-63
2023/03/04 06:39:20;;;;;;;14.13;2.97;;;;;;;4.06;85.70;102445.94;5018863;28;20096;-58
2023/03/04 06:41:45;;;;;;;14.13;2.65;;;;;;;4.10;86.14;102458.81;5019644;28;20688;-59
2023/03/04 06:44:11;;;;;;;12.85;2.88;;;;;;;4.06;86.49;102457.28;5018208;28;20026;-60
2023/03/04 06:46:36;;;;;;;14.55;2.75;;;;;;;3.89;88.31;102456.38;5017505;28;20048;-61
2023/03/04 06:49:02;;;;;;;10.90;2.70;;;;;;;3.87;87.95;102457.38;5017370;28;20856;-59
2023/03/04 06:51:27;;;;;;;7.97;2.67;;;;;;;3.82;88.86;102465.47;5014104;28;20034;-59
2023/03/04 06:53:53;;;;;;;10.98;3.15;;;;;;;3.74;89.66;102467.63;5016101;28;20080;-58
2023/03/04 06:56:18;;;;;;;11.00;2.85;;;;;;;3.83;88.62;102469.78;5019475;28;20028;-59
2023/03/04 06:58:44;;;;;;;15.23;2.85;;;;;;;3.84;89.38;102468.88;5017121;28;20025;-59
2023/03/04 07:01:15;;;;;;;13.25;3.00;;;;;;;3.86;89.15;102461.75;5021173;28;20034;-59
2023/03/04 07:03:41;;;;;;;12.33;2.83;;;;;;;3.85;89.63;102469.72;5012863;28;20076;-60
2023/03/04 07:06:09;;;;;;;10.00;2.75;;;;;;;3.78;89.53;102471.78;5015947;28;20053;-59
2023/03/04 07:08:35;;;;;;;12.65;3.33;;;;;;;3.78;90.38;102466.53;5019330;28;20028;-59
2023/03/04 07:11:00;;;;;;;15.82;3.00;;;;;;;3.82;90.08;102470.72;5015240;28;20462;-59
2023/03/04 07:13:25;;;;;;;13.30;3.17;;;;;;;3.85;90.18;102475.81;5018029;28;20029;-59
2023/03/04 07:15:51;;;;;;;12.13;3.30;;;;;;;3.86;90.15;102469.63;5013690;28;20053;-60
2023/03/04 07:18:18;;;;;;;16.42;3.42;;;;;;;3.90;89.95;102473.81;5016748;28;20116;-59
2023/03/04 07:20:43;;;;;;;16.25;3.38;;;;;;;3.87;90.68;102473.97;5016254;28;20412;-59
2023/03/04 07:23:09;;;;;;;13.05;3.25;;;;;;;3.97;90.93;102478.75;5013711;28;20116;-59
2023/03/04 07:25:34;;;;;;;12.00;3.28;;;;;;;4.00;91.64;102479.44;5022510;28;20056;-60
2023/03/04 07:27:59;;;;;;;10.85;2.80;;;;;;;4.02;90.83;102482.00;5014033;28;20496;-59
2023/03/04 07:30:25;;;;;;;11.00;3.40;;;;;;;4.04;91.15;102485.38;5014951;28;20034;-60
2023/03/04 07:32:50;;;;;;;12.00;3.08;;;;;;;4.04;90.23;102486.25;5013609;28;20470;-59
2023/03/04 07:35:15;;;;;;;13.73;3.15;;;;;;;4.06;89.85;102494.03;5016730;28;20053;-60
2023/03/04 07:37:40;;;;;;;12.80;4.00;;;;;;;4.07;91.31;102487.88;5024482;28;20029;-59
2023/03/04 07:40:07;;;;;;;15.63;3.92;;;;;;;4.09;90.61;102499.13;5016739;28;20045;-60
2023/03/04 07:42:33;;;;;;;17.48;3.53;;;;;;;4.15;89.90;102503.22;5016792;28;20479;-59
2023/03/04 07:45:00;;;;;;;11.70;3.30;;;;;;;4.15;90.29;102497.97;5018398;28;20061;-58
2023/03/04 07:47:25;;;;;;;18.27;3.72;;;;;;;4.14;90.78;102502.38;5019655;28;20115;-59
2023/03/04 07:49:51;;;;;;;12.30;3.88;;;;;;;4.22;90.46;102507.25;5020027;28;20470;-58
2023/03/04 07:52:16;;;;;;;15.88;4.20;;;;;;;4.19;90.95;102509.19;5024269;28;20548;-59
2023/03/04 07:54:41;;;;;;;15.80;3.97;;;;;;;4.21;90.65;102507.31;5018717;28;20552;-59
2023/03/04 07:57:07;;;;;;;13.40;3.70;;;;;;;4.25;90.20;102508.88;5016962;28;20116;-59
2023/03/04 07:59:32;;;;;;;14.30;4.18;;;;;;;4.19;91.33;102512.63;5019377;28;20026;-59
2023/03/04 08:01:57;;;;;;;14.48;4.00;;;;;;;4.23;91.35;102511.56;5018841;28;20026;-58
2023/03/04 08:04:22;;;;;;;13.93;3.60;;;;;;;4.28;90.44;102508.69;5017855;28;20458;-59
2023/03/04 08:06:48;;;;;;;13.27;3.67;;;;;;;4.20;90.53;102509.09;5021305;28;20034;-58
2023/03/04 08:09:13;;;;;;;15.18;3.92;;;;;;;4.13;92.67;102512.94;5014598;28;20597;-58
2023/03/04 08:11:40;;;;;;;18.70;3.95;;;;;;;4.15;91.91;102509.31;5016706;28;20044;-60
2023/03/04 08:14:06;;;;;;;17.10;4.10;;;;;;;4.20;92.59;102510.88;5015857;28;20044;-59
2023/03/04 08:16:31;;;;;;;15.18;3.80;;;;;;;4.20;92.26;102506.47;5016752;28;20030;-63
2023/03/04 08:18:59;;;;;;;16.63;3.72;;;;;;;4.20;92.58;102511.72;5015931;28;20021;-64
2023/03/04 08:21:26;;;;;;;13.63;3.80;;;;;;;4.25;93.02;102519.38;5016432;28;20061;-58
2023/03/04 08:23:52;;;;;;;14.10;3.75;;;;;;;4.40;91.25;102513.31;5020214;28;20238;-59
2023/03/04 08:26:19;;;;;;;15.88;3.67;;;;;;;4.32;92.83;102520.75;5020293;28;20033;-58
2023/03/04 08:28:45;;;;;;;16.13;4.10;;;;;;;4.34;93.00;102512.78;5016733;28;21062;-60
2023/03/04 08:31:15;;;;;;;13.85;3.70;;;;;;;4.46;92.15;102511.28;5020048;28;20036;-59
2023/03/04 08:33:40;;;;;;;12.13;3.78;;;;;;;4.32;93.72;102518.13;5030478;28;20037;-59
2023/03/04 08:36:06;;;;;;;15.27;4.07;;;;;;;4.38;94.19;102515.19;5025015;28;20033;-58
2023/03/04 08:38:32;;;;;;;9.93;3.20;;;;;;;4.40;93.71;102517.72;5031476;28;20433;-59
2023/03/04 08:40:57;;;;;;;12.20;3.50;;;;;;;4.44;94.29;102520.09;5019297;28;20038;-58
2023/03/04 08:43:24;;;;;;;14.20;3.53;;;;;;;4.53;93.41;102516.16;5027138;28;20030;-60
2023/03/04 08:45:49;;;;;;;13.68;3.40;;;;;;;4.60;94.05;102519.31;5030822;28;20022;-59
2023/03/04 08:48:16;;;;;;;13.65;3.35;;;;;;;4.70;93.12;102514.44;5031473;28;20091;-59
2023/03/04 08:50:43;;;;;;;12.63;3.45;;;;;;;4.65;92.86;102514.69;5031399;28;20033;-59
2023/03/04 08:53:08;;;;;;;15.50;3.75;;;;;;;4.70;94.05;102520.50;5023517;28;20026;-61
2023/03/04 08:55:33;;;;;;;11.10;3.75;;;;;;;4.82;92.24;102515.53;5022243;28;20033;-58
2023/03/04 08:57:59;;;;;;;15.63;3.67;;;;;;;4.94;91.12;102512.25;5025367;28;20409;-60
2023/03/04 09:00:26;;;;;;;12.13;3.90;;;;;;;4.94;91.83;102509.63;5027940;28;20041;-59
2023/03/04 09:02:52;;;;;;;15.88;4.13;;;;;;;4.98;91.20;102511.16;5025922;28;20038;-59
2023/03/04 09:05:17;;;;;;;15.50;4.28;;;;;;;5.12;90.58;102509.56;5027847;28;20461;-59
2023/03/04 09:07:42;;;;;;;15.13;3.92;;;;;;;5.29;89.90;102510.41;5041731;28;20106;-59
2023/03/04 09:10:08;;;;;;;9.82;3.30;;;;;;;5.37;88.79;102509.03;5026606;28;20037;-58
2023/03/04 09:12:34;;;;;;;10.02;3.13;;;;;;;5.36;86.31;102512.63;5028148;28;20116;-59
2023/03/04 09:14:59;;;;;;;13.00;3.28;;;;;;;5.32;87.54;102507.63;5026898;28;20044;-59
2023/03/04 09:17:24;;;;;;;12.93;2.92;;;;;;;5.35;85.54;102505.66;5027006;28;20025;-58
2023/03/04 09:19:49;;;;;;;7.40;2.88;;;;;;;5.35;85.91;102504.81;5030519;28;20030;-59
2023/03/04 09:22:15;;;;;;;13.85;3.10;;;;;;;5.30;87.83;102498.94;5023006;28;20385;-60
2023/03/04 09:24:40;;;;;;;8.43;3.10;;;;;;;5.27;86.99;102499.97;5047725;28;20116;-59
2023/03/04 09:27:05;;;;;;;13.02;3.10;;;;;;;5.31;89.17;102498.00;5034375;28;20100;-59
2023/03/04 09:29:31;;;;;;;14.20;3.30;;;;;;;5.46;88.27;102498.94;5034863;28;20096;-59
2023/03/04 09:31:56;;;;;;;9.90;3.05;;;;;;;5.51;87.48;102494.25;5030764;28;20048;-59
2023/03/04 09:34:22;;;;;;;9.63;3.00;;;;;;;5.55;88.36;102500.19;5034394;28;20053;-59
2023/03/04 09:36:47;;;;;;;9.73;2.70;;;;;;;5.58;86.13;102486.88;5031997;28;20040;-59
2023/03/04 09:39:12;;;;;;;9.80;2.83;;;;;;;5.55;87.62;102489.66;5031953;28;20100;-59
2023/03/04 09:41:41;;;;;;;10.20;2.92;;;;;;;5.65;85.54;102488.22;5020613;28;20076;-60
2023/03/04 09:44:29;;;;;;;10.20;2.67;;;;;;;5.77;87.16;102484.88;5039809;28;20032;-59
2023/03/04 09:46:58;;;;;;;8.15;2.70;;;;;;;5.66;85.61;102482.00;5026816;28;20041;-59
2023/03/04 09:49:25;;;;;;;11.73;2.60;;;;;;;5.71;87.21;102487.84;5032945;28;20108;-59
2023/03/04 09:52:03;;;;;;;8.57;2.20;;;;;;;5.81;84.51;102484.72;5033906;28;20036;-59
2023/03/04 09:54:31;;;;;;;6.20;2.15;;;;;;;5.75;84.67;102488.53;5024146;28;20689;-59
2023/03/04 09:57:05;;;;;;;12.40;2.45;;;;;;;5.75;84.20;102488.53;5037298;28;20484;-59
2023/03/04 09:59:40;;;;;;;6.82;2.55;;;;;;;5.64;85.71;102484.72;5031300;28;20044;-59
2023/03/04 10:02:30;;;;;;;10.65;2.97;;;;;;;5.70;86.42;102494.06;5038689;28;20029;-59
2023/03/04 10:05:01;;;;;;;6.53;2.35;;;;;;;5.57;86.36;102482.56;5034016;28;20021;-59
2023/03/04 10:07:35;;;;;;;6.63;2.50;;;;;;;5.83;86.58;102483.69;5027629;28;20068;-60
2023/03/04 10:10:16;;;;;;;6.65;2.40;;;;;;;6.00;84.27;102477.41;5025307;28;20069;-60
2023/03/04 10:12:46;;;;;;;7.70;2.40;;;;;;;5.95;84.79;102482.09;5039496;28;20040;-58
2023/03/04 10:15:33;;;;;;;7.90;2.72;;;;;;;6.05;83.09;102483.28;5025790;28;20079;-60
2023/03/04 10:18:13;;;;;;;8.60;2.72;;;;;;;6.00;83.39;102474.78;5036093;28;20056;-59
2023/03/04 10:20:55;;;;;;;8.45;2.70;;;;;;;5.88;85.09;102481.59;5030582;28;20124;-59
2023/03/04 10:23:24;;;;;;;12.05;3.03;;;;;;;5.96;85.18;102475.06;5027868;28;20026;-59
2023/03/04 10:25:53;;;;;;;8.10;3.08;;;;;;;6.10;83.93;102482.16;5022735;28;20026;-59
2023/03/04 10:28:23;;;;;;;9.82;3.20;;;;;;;6.29;83.47;102472.22;5025493;28;20034;-59
2023/03/04 10:30:55;;;;;;;9.27;2.70;;;;;;;6.37;83.03;102476.19;5021732;28;20025;-59
2023/03/04 10:33:24;;;;;;;7.60;2.67;;;;;;;6.47;81.66;102472.06;5029496;28;20033;-59
2023/03/04 10:35:59;;;;;;;10.30;2.65;;;;;;;6.45;81.26;102468.63;5018210;28;20478;-58
2023/03/04 10:38:24;;;;;;;7.50;2.80;;;;;;;6.41;80.95;102464.53;5032188;28;20029;-59
2023/03/04 10:40:50;;;;;;;7.10;2.63;;;;;;;6.28;80.96;102459.97;5032133;28;20496;-58
2023/03/04 10:43:19;;;;;;;10.80;2.72;;;;;;;6.41;80.62;102459.25;5033038;28;20052;-58
2023/03/04 10:45:46;;;;;;;5.97;2.47;;;;;;;6.28;80.50;102457.34;5023479;28;20033;-56
2023/03/04 10:48:26;;;;;;;6.63;2.92;;;;;;;6.29;81.69;102452.94;5025622;28;20061;-59
2023/03/04 10:50:52;;;;;;;11.63;3.70;;;;;;;6.24;82.02;102461.13;5036448;28;20056;-59
2023/03/04 10:53:29;;;;;;;7.20;2.95;;;;;;;6.21;83.39;102455.19;5028145;28;20056;-59
2023/03/04 10:55:54;;;;;;;8.95;3.00;;;;;;;6.15;82.82;102461.66;5030959;28;20112;-58
2023/03/04 10:58:20;;;;;;;9.00;2.80;;;;;;;6.10;82.42;102463.72;5029387;28;20108;-58
2023/03/04 11:00:59;;;;;;;9.13;3.13;;;;;;;6.10;83.07;102461.09;5022219;28;20481;-59
2023/03/04 11:03:48;;;;;;;9.23;2.70;;;;;;;6.22;82.52;102457.72;5033681;28;20037;-60
2023/03/04 11:06:22;;;;;;;11.38;2.88;;;;;;;6.11;83.31;102462.81;5021278;28;20046;-59
2023/03/04 11:08:56;;;;;;;8.57;3.30;;;;;;;6.10;83.46;102458.44;5041426;28;20495;-58
2023/03/04 11:11:41;;;;;;;9.40;3.10;;;;;;;6.10;83.81;102454.03;5024652;28;20465;-59
2023/03/04 11:14:20;;;;;;;8.73;2.85;;;;;;;6.09;84.94;102451.50;5030343;28;20484;-59
2023/03/04 11:17:00;;;;;;;6.97;2.40;;;;;;;6.29;83.48;102437.97;5017008;28;20048;-59
2023/03/04 11:19:37;;;;;;;8.27;2.63;;;;;;;6.27;84.28;102442.47;5027702;28;20029;-58
2023/03/04 11:22:03;;;;;;;6.97;2.50;;;;;;;6.21;84.44;102440.22;5035081;28;20172;-59
2023/03/04 11:24:30;;;;;;;8.25;3.22;;;;;;;6.15;85.39;102440.59;5035710;28;20062;-58